Time;durP1;ratioP1;P1;durP2;ratioP2;P2;SDS_P1;SDS_P2;PMS_P1;PMS_P2;Temp;Humidity;BMP_temperature;BMP_pressure;BME280_temperature;BME280_humidity;BME280_pressure;Samples;Min_cycle;Max_cycle;Signal;HPM_P1;HPM_P2
2022/08/15 00:01:23;;;;;;;4.13;2.90;;;27.10;68.70;;;;;;5045903;28;20031;-44
2022/08/15 00:03:52;;;;;;;3.20;3.00;;;27.10;68.80;;;;;;5045469;28;20049;-42
2022/08/15 00:06:27;;;;;;;3.28;3.08;;;27.10;68.90;;;;;;5045324;28;20039;-42
2022/08/15 00:08:56;;;;;;;3.30;3.00;;;27.10;69.00;;;;;;5026133;28;20041;-43
2022/08/15 00:11:28;;;;;;;3.05;2.85;;;27.00;69.00;;;;;;5042207;28;20053;-43
2022/08/15 00:14:00;;;;;;;3.30;3.00;;;27.00;69.10;;;;;;5025032;28;20029;-43
2022/08/15 00:16:26;;;;;;;3.72;3.42;;;27.00;69.20;;;;;;5040174;28;20102;-43
2022/08/15 00:18:52;;;;;;;3.63;3.33;;;27.00;69.20;;;;;;5044691;28;20071;-44
2022/08/15 00:21:20;;;;;;;3.80;3.50;;;26.90;69.20;;;;;;5045926;28;20377;-44
2022/08/15 00:23:47;;;;;;;3.85;3.20;;;26.90;69.40;;;;;;5045408;28;20021;-43
2022/08/15 00:26:14;;;;;;;3.55;3.25;;;26.90;69.50;;;;;;5045498;28;20021;-44
2022/08/15 00:28:40;;;;;;;3.50;3.20;;;26.90;69.60;;;;;;5045461;28;20017;-43
2022/08/15 00:31:08;;;;;;;3.70;3.40;;;26.80;69.60;;;;;;5044099;28;20040;-42
2022/08/15 00:33:34;;;;;;;3.75;3.45;;;26.70;69.70;;;;;;5043470;28;20113;-43
2022/08/15 00:36:00;;;;;;;3.40;3.20;;;26.70;69.70;;;;;;5045414;28;20107;-43
2022/08/15 00:38:27;;;;;;;3.63;3.33;;;26.70;69.80;;;;;;5045261;28;20129;-44
2022/08/15 00:43:45;;;;;;;3.45;3.15;;;26.70;70.00;;;;;;5035712;28;20643;-43
2022/08/15 00:46:13;;;;;;;3.83;3.45;;;26.60;69.90;;;;;;5045650;28;20021;-43
2022/08/15 00:48:42;;;;;;;3.55;3.25;;;26.70;70.10;;;;;;5044854;28;20496;-44
2022/08/15 00:51:14;;;;;;;3.47;3.17;;;26.60;70.10;;;;;;5045364;28;20033;-43
2022/08/15 00:53:44;;;;;;;3.50;3.20;;;26.60;70.10;;;;;;5044839;28;20102;-43
2022/08/15 00:56:11;;;;;;;3.30;3.10;;;26.60;70.10;;;;;;5044179;28;20033;-43
2022/08/15 00:58:38;;;;;;;3.15;2.90;;;26.60;70.10;;;;;;5045332;28;20551;-43
2022/08/15 01:01:05;;;;;;;3.60;3.30;;;26.60;70.20;;;;;;5044841;28;20569;-43
2022/08/15 01:03:34;;;;;;;3.70;3.35;;;26.60;70.20;;;;;;5044093;28;20049;-43
2022/08/15 01:06:01;;;;;;;3.67;3.38;;;26.60;70.40;;;;;;5045521;28;20025;-42
2022/08/15 01:08:32;;;;;;;3.80;3.50;;;26.60;70.40;;;;;;5043911;28;20033;-44
2022/08/15 01:11:02;;;;;;;3.50;3.20;;;26.60;70.60;;;;;;5044592;28;20381;-44
2022/08/15 01:13:28;;;;;;;3.53;3.25;;;26.50;70.60;;;;;;5044362;28;20059;-44
2022/08/15 01:15:54;;;;;;;3.40;3.10;;;26.50;70.70;;;;;;5044020;28;20440;-44
2022/08/15 01:18:19;;;;;;;3.17;2.90;;;26.50;70.70;;;;;;5044633;28;20024;-44
2022/08/15 01:20:45;;;;;;;3.42;3.15;;;26.50;70.80;;;;;;5045006;28;20197;-44
2022/08/15 01:23:56;;;;;;;3.45;3.25;;;26.50;70.90;;;;;;5044420;28;20036;-44
2022/08/15 01:26:23;;;;;;;3.47;3.17;;;26.40;70.90;;;;;;5025293;28;20029;-43
2022/08/15 01:28:53;;;;;;;3.85;3.55;;;26.40;71.00;;;;;;5038862;28;20568;-43
2022/08/15 01:31:22;;;;;;;3.63;3.33;;;26.40;71.10;;;;;;5044636;28;20491;-43
2022/08/15 01:33:53;;;;;;;3.95;3.55;;;26.40;71.20;;;;;;5044021;28;20083;-43
2022/08/15 01:36:20;;;;;;;3.88;3.58;;;26.40;71.30;;;;;;5044674;28;20119;-43
2022/08/15 01:38:56;;;;;;;3.90;3.60;;;26.30;71.20;;;;;;5043975;28;20497;-44
2022/08/15 01:41:30;;;;;;;3.90;3.53;;;26.40;71.40;;;;;;5044779;28;20044;-43
2022/08/15 01:44:11;;;;;;;4.22;3.78;;;26.30;71.40;;;;;;5043473;28;20103;-43
2022/08/15 01:46:42;;;;;;;3.80;3.50;;;26.40;71.60;;;;;;5044873;28;20048;-43
2022/08/15 01:49:28;;;;;;;4.03;3.70;;;26.40;71.70;;;;;;5044990;28;20020;-43
2022/08/15 01:51:57;;;;;;;4.20;3.90;;;26.30;71.80;;;;;;5044474;28;20041;-43
2022/08/15 01:54:25;;;;;;;4.03;3.70;;;26.40;71.90;;;;;;5044076;28;20029;-44
2022/08/15 01:56:51;;;;;;;3.95;3.53;;;26.30;71.90;;;;;;5044472;28;20406;-44
2022/08/15 01:59:20;;;;;;;4.03;3.72;;;26.30;72.00;;;;;;5044419;28;20099;-44
2022/08/15 02:02:02;;;;;;;3.97;3.67;;;26.30;72.20;;;;;;5048413;28;20086;-44
2022/08/15 02:04:36;;;;;;;3.67;3.40;;;26.30;72.30;;;;;;5047426;28;20036;-44
2022/08/15 02:07:12;;;;;;;3.85;3.53;;;26.20;72.30;;;;;;5048835;28;20033;-43
2022/08/15 02:09:40;;;;;;;4.05;3.67;;;26.20;72.40;;;;;;5048411;28;20051;-44
2022/08/15 02:12:08;;;;;;;3.90;3.60;;;26.20;72.50;;;;;;5047637;28;20032;-43
2022/08/15 02:14:35;;;;;;;3.90;3.60;;;26.10;72.40;;;;;;5048243;28;20106;-43
2022/08/15 02:17:02;;;;;;;3.83;3.53;;;26.10;72.60;;;;;;5048088;28;20037;-43
2022/08/15 02:19:28;;;;;;;4.15;3.38;;;26.10;72.80;;;;;;5046942;28;20540;-44
2022/08/15 02:21:53;;;;;;;3.92;3.63;;;26.00;73.00;;;;;;5048189;28;20155;-43
2022/08/15 02:24:22;;;;;;;4.38;4.00;;;25.90;73.20;;;;;;5048348;28;20055;-43
2022/08/15 02:26:51;;;;;;;3.90;3.60;;;25.80;73.50;;;;;;5045413;28;20029;-43
2022/08/15 02:29:18;;;;;;;6.03;4.03;;;25.80;73.80;;;;;;5047656;28;20028;-43
2022/08/15 02:31:44;;;;;;;4.25;3.92;;;25.80;73.90;;;;;;5047364;28;20400;-44
2022/08/15 02:34:10;;;;;;;4.32;4.03;;;25.70;74.10;;;;;;5047197;28;20507;-43
2022/08/15 02:36:38;;;;;;;4.25;3.92;;;25.60;74.40;;;;;;5047031;28;20459;-43
2022/08/15 02:39:08;;;;;;;4.53;4.13;;;25.60;74.70;;;;;;5047597;28;20044;-44
2022/08/15 02:41:39;;;;;;;4.65;4.32;;;25.50;74.80;;;;;;5046743;28;20041;-43
2022/08/15 02:44:05;;;;;;;4.63;4.22;;;25.50;75.00;;;;;;5047736;28;20021;-43
2022/08/15 02:46:32;;;;;;;4.57;4.22;;;25.50;75.20;;;;;;5046566;28;20075;-43
2022/08/15 02:49:01;;;;;;;5.47;4.97;;;25.50;75.40;;;;;;5047991;28;20029;-43
2022/08/15 02:51:28;;;;;;;4.80;4.43;;;25.50;75.60;;;;;;5047050;28;20055;-44
2022/08/15 02:53:55;;;;;;;5.07;4.63;;;25.40;76.40;;;;;;5046936;28;20021;-44
2022/08/15 02:56:25;;;;;;;4.97;4.57;;;25.40;75.90;;;;;;5047798;28;20108;-44
2022/08/15 02:58:51;;;;;;;5.05;4.60;;;25.40;76.10;;;;;;5047193;28;20025;-44
2022/08/15 03:01:19;;;;;;;4.85;4.35;;;25.40;76.10;;;;;;5046737;28;20029;-44
2022/08/15 03:03:48;;;;;;;4.72;4.43;;;25.30;76.10;;;;;;5047055;28;20053;-44
2022/08/15 03:06:17;;;;;;;4.95;4.55;;;25.30;76.20;;;;;;5047005;28;20217;-43
2022/08/15 03:08:43;;;;;;;5.00;4.60;;;25.30;76.30;;;;;;5046690;28;20025;-43
2022/08/15 03:11:09;;;;;;;5.05;4.43;;;25.30;76.40;;;;;;5046084;28;20527;-42
2022/08/15 03:13:38;;;;;;;5.38;4.88;;;25.20;76.40;;;;;;5035551;28;20081;-43
2022/08/15 03:16:05;;;;;;;4.97;4.57;;;25.20;76.60;;;;;;5046277;28;20082;-43
2022/08/15 03:18:32;;;;;;;5.05;4.50;;;25.10;76.70;;;;;;5046898;28;20112;-44
2022/08/15 03:21:00;;;;;;;5.20;4.70;;;25.10;76.90;;;;;;5047462;28;20020;-44
2022/08/15 03:23:27;;;;;;;4.78;4.35;;;25.00;77.00;;;;;;5046151;28;20052;-44
2022/08/15 03:25:59;;;;;;;5.68;4.30;;;25.00;77.10;;;;;;5046969;28;20040;-43
2022/08/15 03:28:26;;;;;;;4.87;4.47;;;24.90;77.30;;;;;;5046513;28;20032;-43
2022/08/15 03:30:52;;;;;;;4.85;4.45;;;24.90;77.40;;;;;;5045494;28;20647;-42
2022/08/15 03:33:18;;;;;;;4.70;4.30;;;24.80;77.60;;;;;;5046622;28;20020;-43
2022/08/15 03:35:47;;;;;;;4.80;4.40;;;24.70;77.80;;;;;;5046701;28;20430;-43
2022/08/15 03:38:13;;;;;;;5.25;4.85;;;24.70;78.10;;;;;;5046549;28;20488;-43
2022/08/15 03:40:41;;;;;;;4.88;4.47;;;24.70;78.40;;;;;;5046500;28;20423;-43
2022/08/15 03:43:12;;;;;;;5.75;5.18;;;24.60;78.70;;;;;;5045476;28;20075;-43
2022/08/15 03:45:42;;;;;;;5.65;4.80;;;24.60;78.80;;;;;;5046502;28;20029;-42
2022/08/15 03:48:08;;;;;;;4.78;4.38;;;24.60;79.10;;;;;;5046497;28;20033;-43
2022/08/15 03:50:33;;;;;;;5.03;4.63;;;24.50;79.20;;;;;;5045132;28;20090;-43
2022/08/15 03:53:03;;;;;;;5.53;5.10;;;24.40;79.40;;;;;;5045898;28;20086;-42
2022/08/15 03:55:31;;;;;;;5.28;4.75;;;24.40;79.60;;;;;;5046050;28;20059;-43
2022/08/15 03:57:58;;;;;;;4.90;4.53;;;24.30;79.80;;;;;;5045506;28;20048;-44
2022/08/15 04:00:28;;;;;;;5.65;5.15;;;24.30;80.00;;;;;;5046425;28;20029;-44
2022/08/15 04:03:12;;;;;;;5.57;5.10;;;24.30;80.20;;;;;;5045874;28;20037;-43
2022/08/15 04:05:38;;;;;;;5.03;4.63;;;24.30;80.50;;;;;;5045039;28;20060;-43
2022/08/15 04:08:10;;;;;;;6.25;5.10;;;24.30;80.60;;;;;;5046134;28;20032;-43
2022/08/15 04:10:37;;;;;;;5.43;4.97;;;24.20;80.80;;;;;;5046064;28;20049;-43
2022/08/15 04:13:06;;;;;;;5.45;4.97;;;24.20;80.90;;;;;;5045120;28;20361;-43
2022/08/15 04:15:33;;;;;;;5.80;5.20;;;24.20;81.00;;;;;;5046148;28;20279;-44
2022/08/15 04:18:00;;;;;;;5.70;5.10;;;24.20;81.10;;;;;;5044891;28;20099;-43
2022/08/15 04:20:25;;;;;;;5.50;5.00;;;24.10;81.30;;;;;;5045202;28;20053;-43
2022/08/15 04:22:51;;;;;;;6.07;5.53;;;24.10;81.50;;;;;;5046159;28;20440;-43
2022/08/15 04:25:21;;;;;;;5.65;5.15;;;24.10;81.70;;;;;;5045446;28;20029;-44
2022/08/15 04:27:48;;;;;;;6.00;5.50;;;24.10;81.80;;;;;;5045547;28;20044;-44
2022/08/15 04:30:14;;;;;;;5.80;5.30;;;24.00;82.00;;;;;;5045754;28;20025;-43
2022/08/15 04:32:40;;;;;;;5.95;5.38;;;24.10;82.10;;;;;;5044162;28;20021;-43
2022/08/15 04:35:08;;;;;;;6.32;5.57;;;24.10;82.20;;;;;;5045062;28;20032;-44
2022/08/15 04:37:37;;;;;;;5.43;5.00;;;24.10;82.30;;;;;;5045703;28;20082;-43
2022/08/15 04:40:04;;;;;;;5.63;5.18;;;24.10;82.40;;;;;;5044726;28;20040;-44
2022/08/15 04:42:29;;;;;;;5.80;5.30;;;24.10;82.60;;;;;;5045438;28;20017;-43
2022/08/15 04:44:55;;;;;;;5.72;5.22;;;24.00;82.70;;;;;;5045537;28;20017;-43
2022/08/15 04:47:21;;;;;;;5.80;5.30;;;23.90;82.80;;;;;;5045163;28;20433;-44
2022/08/15 04:49:46;;;;;;;5.95;5.38;;;23.90;83.00;;;;;;5044780;28;20035;-43
2022/08/15 04:52:18;;;;;;;11.73;6.15;;;23.80;83.10;;;;;;5045844;28;20044;-43
2022/08/15 04:54:45;;;;;;;6.50;5.90;;;23.80;83.30;;;;;;5043798;28;20442;-42
2022/08/15 04:57:12;;;;;;;6.45;5.95;;;23.70;83.50;;;;;;5045666;28;20024;-43
2022/08/15 04:59:39;;;;;;;6.65;6.05;;;23.70;83.90;;;;;;5045447;28;20039;-43
2022/08/15 05:02:13;;;;;;;8.48;6.80;;;23.60;84.20;;;;;;5044567;28;20086;-43
2022/08/15 05:04:39;;;;;;;7.55;6.88;;;23.60;84.70;;;;;;5044504;28;20073;-43
2022/08/15 05:07:05;;;;;;;7.30;6.60;;;23.50;84.90;;;;;;5045342;28;20596;-43
2022/08/15 05:09:30;;;;;;;9.38;6.90;;;23.50;85.30;;;;;;5043859;28;20499;-43
2022/08/15 05:11:57;;;;;;;7.70;6.95;;;23.50;85.70;;;;;;5045081;28;20024;-43
2022/08/15 05:14:23;;;;;;;8.00;7.32;;;23.40;86.00;;;;;;5044936;28;20068;-43
2022/08/15 05:16:48;;;;;;;8.82;7.90;;;23.40;86.40;;;;;;5044651;28;20029;-44
2022/08/15 05:19:14;;;;;;;8.52;7.72;;;23.40;86.70;;;;;;5045741;28;20393;-43
2022/08/15 05:21:40;;;;;;;9.45;8.52;;;23.40;86.90;;;;;;5044490;28;20114;-43
2022/08/15 05:24:06;;;;;;;9.38;8.48;;;23.40;86.90;;;;;;5045015;28;20029;-43
2022/08/15 05:26:32;;;;;;;9.18;8.23;;;23.30;87.00;;;;;;5044820;28;20021;-43
2022/08/15 05:28:59;;;;;;;9.43;8.52;;;23.30;87.10;;;;;;5043701;28;20380;-42
2022/08/15 05:31:25;;;;;;;10.75;8.80;;;23.20;87.30;;;;;;5044769;28;20067;-42
2022/08/15 05:33:50;;;;;;;9.80;8.93;;;23.20;87.30;;;;;;5044077;28;20021;-43
2022/08/15 05:36:18;;;;;;;10.63;9.52;;;23.20;87.30;;;;;;5043504;28;20033;-44
2022/08/15 05:38:49;;;;;;;9.60;8.80;;;23.20;87.40;;;;;;5044652;28;20410;-44
2022/08/15 05:41:24;;;;;;;10.45;9.45;;;23.30;87.40;;;;;;5044499;28;20039;-44
2022/08/15 05:44:34;;;;;;;10.25;9.25;;;23.30;87.50;;;;;;5043596;28;20028;-44
2022/08/15 05:47:35;;;;;;;8.85;8.02;;;23.30;87.60;;;;;;5041454;28;20075;-43
2022/08/15 05:50:30;;;;;;;11.57;10.40;;;23.30;87.50;;;;;;5044159;28;20037;-43
2022/08/15 05:53:20;;;;;;;9.77;8.95;;;23.20;87.70;;;;;;5044445;28;20029;-43
2022/08/15 05:55:52;;;;;;;8.27;7.53;;;23.20;87.80;;;;;;5044102;28;20037;-43
2022/08/15 05:58:48;;;;;;;9.20;8.30;;;23.10;87.70;;;;;;5043078;28;20025;-44
2022/08/15 06:01:35;;;;;;;8.60;7.78;;;23.10;87.70;;;;;;5044920;28;20033;-43
2022/08/15 06:04:11;;;;;;;7.50;6.80;;;23.20;87.70;;;;;;5043149;28;20053;-43
2022/08/15 06:06:41;;;;;;;7.22;5.95;;;23.10;87.60;;;;;;5043962;28;20461;-43
2022/08/15 06:09:27;;;;;;;5.63;4.82;;;23.10;87.50;;;;;;5041533;28;20063;-43
2022/08/15 06:11:55;;;;;;;4.70;4.30;;;23.10;87.30;;;;;;5042266;28;20037;-43
2022/08/15 06:14:29;;;;;;;4.95;4.47;;;23.10;87.10;;;;;;5042680;28;20013;-44
2022/08/15 06:17:04;;;;;;;5.97;3.97;;;23.10;86.90;;;;;;5043082;28;20024;-43
2022/08/15 06:19:33;;;;;;;3.50;3.25;;;23.20;86.60;;;;;;5042462;28;20060;-43
2022/08/15 06:22:22;;;;;;;3.80;3.50;;;23.20;86.40;;;;;;5043498;28;20104;-43
2022/08/15 06:25:01;;;;;;;3.88;3.30;;;23.20;86.20;;;;;;5041535;28;20142;-43
2022/08/15 06:27:29;;;;;;;3.10;2.67;;;23.20;86.10;;;;;;5042557;28;20129;-43
2022/08/15 06:30:09;;;;;;;3.95;3.30;;;23.20;86.00;;;;;;5043133;28;20041;-43
2022/08/15 06:33:03;;;;;;;3.35;2.90;;;23.20;86.00;;;;;;5042516;28;20029;-43
2022/08/15 06:35:45;;;;;;;3.40;2.90;;;23.20;85.90;;;;;;5033803;28;20055;-44
2022/08/15 06:38:27;;;;;;;6.25;3.22;;;23.30;85.70;;;;;;5044589;28;20041;-43
2022/08/15 06:41:09;;;;;;;3.45;2.72;;;23.30;85.40;;;;;;5041996;28;20044;-43
2022/08/15 06:43:34;;;;;;;2.97;2.65;;;23.40;85.10;;;;;;5043817;28;20402;-43
2022/08/15 06:46:03;;;;;;;2.95;2.45;;;23.50;84.80;;;;;;5044218;28;20078;-44
2022/08/15 06:48:37;;;;;;;3.78;2.17;;;23.60;84.60;;;;;;5047087;28;20795;-43
2022/08/15 06:51:05;;;;;;;2.97;2.10;;;23.70;84.40;;;;;;5047549;28;20385;-43
2022/08/15 06:53:40;;;;;;;2.80;2.50;;;23.80;84.20;;;;;;5046113;28;20481;-43
2022/08/15 06:56:26;;;;;;;6.13;2.65;;;23.80;83.90;;;;;;5037072;28;20036;-43
2022/08/15 06:58:56;;;;;;;2.65;2.33;;;23.90;83.70;;;;;;5046655;28;20083;-44
2022/08/15 07:01:39;;;;;;;2.90;2.10;;;24.00;83.40;;;;;;5046649;28;20029;-43
2022/08/15 07:04:33;;;;;;;2.72;2.20;;;24.10;83.20;;;;;;5046661;28;20045;-43
2022/08/15 07:07:18;;;;;;;3.03;2.58;;;24.10;82.70;;;;;;5046498;28;20031;-43
2022/08/15 07:10:01;;;;;;;3.05;2.25;;;24.20;82.20;;;;;;5045927;28;20548;-43
2022/08/15 07:12:45;;;;;;;2.72;2.25;;;24.20;82.00;;;;;;5046901;28;20029;-42
2022/08/15 07:15:17;;;;;;;4.32;2.58;;;24.30;81.60;;;;;;5046401;28;20423;-43
2022/08/15 07:17:50;;;;;;;3.28;2.30;;;24.30;81.20;;;;;;5046552;28;20246;-42
2022/08/15 07:20:19;;;;;;;2.67;2.47;;;24.40;81.20;;;;;;5046508;28;20025;-42
2022/08/15 07:22:45;;;;;;;2.55;2.35;;;24.50;81.10;;;;;;5045104;28;20028;-44
2022/08/15 07:25:14;;;;;;;3.88;2.10;;;24.60;81.10;;;;;;5046993;28;20032;-44
2022/08/15 07:27:40;;;;;;;3.58;2.30;;;24.70;80.90;;;;;;5046693;28;20116;-44
2022/08/15 07:30:20;;;;;;;2.72;2.08;;;24.70;80.80;;;;;;5045678;28;20522;-44
2022/08/15 07:32:56;;;;;;;2.45;1.80;;;24.80;80.70;;;;;;5046128;28;20029;-44
2022/08/15 07:35:28;;;;;;;2.15;1.75;;;24.90;80.70;;;;;;5045038;28;20045;-44
2022/08/15 07:38:00;;;;;;;2.25;1.98;;;24.90;80.40;;;;;;5046600;28;20029;-44
2022/08/15 07:40:32;;;;;;;4.35;2.08;;;24.90;80.40;;;;;;5045832;28;20017;-44
2022/08/15 07:43:01;;;;;;;1.90;1.80;;;25.00;80.30;;;;;;5045444;28;20020;-43
2022/08/15 07:45:39;;;;;;;2.13;1.92;;;25.00;80.30;;;;;;5046448;28;20033;-43
2022/08/15 07:48:25;;;;;;;2.30;2.10;;;25.10;80.30;;;;;;5046637;28;20021;-43
2022/08/15 07:51:05;;;;;;;3.70;2.17;;;25.10;80.70;;;;;;5045094;28;20392;-43
2022/08/15 07:53:31;;;;;;;2.92;2.40;;;25.20;80.00;;;;;;5046088;28;20116;-43
2022/08/15 07:56:09;;;;;;;4.53;2.40;;;25.20;79.80;;;;;;5046231;28;20662;-43
2022/08/15 07:58:35;;;;;;;2.22;2.03;;;25.20;79.80;;;;;;5045046;28;20028;-42
2022/08/15 08:01:33;;;;;;;7.03;2.33;;;25.20;79.70;;;;;;5045733;28;20187;-43
2022/08/15 08:04:09;;;;;;;2.53;2.25;;;25.30;79.70;;;;;;5032643;28;20929;-43
2022/08/15 08:06:42;;;;;;;3.15;2.15;;;25.30;79.50;;;;;;5046196;28;20206;-43
2022/08/15 08:09:10;;;;;;;3.20;2.15;;;25.40;79.20;;;;;;5045873;28;20032;-43
2022/08/15 08:11:54;;;;;;;2.60;2.40;;;25.50;79.00;;;;;;5043772;28;20493;-43
2022/08/15 08:14:49;;;;;;;4.03;2.67;;;25.60;78.80;;;;;;5046490;28;20123;-43
2022/08/15 08:17:26;;;;;;;2.42;2.22;;;25.70;78.60;;;;;;5045286;28;20078;-43
2022/08/15 08:20:23;;;;;;;5.43;2.05;;;25.70;78.50;;;;;;5046002;28;20040;-43
2022/08/15 08:22:55;;;;;;;2.83;1.88;;;25.80;78.20;;;;;;5045205;28;20275;-43
2022/08/15 08:25:44;;;;;;;2.87;2.60;;;25.90;78.10;;;;;;5025167;28;20132;-43
2022/08/15 08:28:47;;;;;;;2.75;2.17;;;26.00;77.80;;;;;;5043322;28;20029;-43
2022/08/15 08:31:30;;;;;;;4.30;2.53;;;26.10;77.80;;;;;;5045037;28;20060;-44
2022/08/15 08:34:34;;;;;;;2.47;1.98;;;26.10;77.50;;;;;;5045270;28;20639;-43
2022/08/15 08:37:05;;;;;;;3.35;2.30;;;26.10;77.30;;;;;;5040766;28;20029;-44
2022/08/15 08:39:49;;;;;;;2.47;2.20;;;26.10;77.20;;;;;;5033739;28;20047;-44
2022/08/15 08:42:33;;;;;;;3.83;2.15;;;26.10;77.20;;;;;;5045306;28;20032;-43
2022/08/15 08:45:23;;;;;;;2.25;2.05;;;26.10;77.20;;;;;;5045079;28;20033;-43
2022/08/15 08:48:23;;;;;;;2.88;2.20;;;26.10;77.10;;;;;;5045031;28;20106;-43
2022/08/15 08:50:53;;;;;;;1.90;1.80;;;26.20;77.00;;;;;;5044962;28;20477;-43
2022/08/15 08:53:28;;;;;;;3.03;2.28;;;26.10;76.80;;;;;;5044468;28;20419;-43
2022/08/15 08:56:04;;;;;;;3.10;2.40;;;26.20;76.70;;;;;;5045216;28;20090;-43
2022/08/15 08:58:40;;;;;;;2.50;2.30;;;26.20;76.50;;;;;;5043905;28;20021;-43
2022/08/15 09:01:09;;;;;;;2.45;2.25;;;26.10;76.40;;;;;;5045495;28;20037;-43
2022/08/15 09:04:03;;;;;;;3.30;3.00;;;26.20;76.50;;;;;;5043932;28;20307;-44
2022/08/15 09:06:36;;;;;;;4.65;3.30;;;26.30;76.40;;;;;;5044206;28;20029;-44
2022/08/15 09:09:26;;;;;;;4.38;3.22;;;26.30;76.10;;;;;;5044562;28;20137;-44
2022/08/15 09:11:57;;;;;;;3.15;2.85;;;26.40;76.10;;;;;;5024011;28;20037;-44
2022/08/15 09:14:23;;;;;;;2.83;2.63;;;26.50;76.00;;;;;;5039261;28;20476;-44
2022/08/15 09:16:54;;;;;;;3.13;2.83;;;26.50;76.00;;;;;;5045117;28;20729;-44
2022/08/15 09:19:27;;;;;;;4.95;3.20;;;26.60;76.10;;;;;;5044938;28;20063;-44
2022/08/15 09:21:53;;;;;;;4.93;3.75;;;26.60;76.20;;;;;;5044075;28;20373;-44
2022/08/15 09:24:22;;;;;;;5.97;4.15;;;26.70;76.30;;;;;;5044719;28;20201;-44
2022/08/15 09:26:56;;;;;;;6.20;3.90;;;26.70;76.30;;;;;;5044490;28;20020;-43
2022/08/15 09:29:37;;;;;;;4.85;4.20;;;26.80;76.50;;;;;;5044005;28;20040;-43
2022/08/15 09:32:27;;;;;;;3.83;3.22;;;26.80;76.50;;;;;;5044898;28;20061;-43
2022/08/15 09:35:02;;;;;;;5.07;3.85;;;26.80;76.20;;;;;;5043665;28;20036;-43
2022/08/15 09:37:51;;;;;;;4.40;3.00;;;26.70;75.90;;;;;;5044614;28;20111;-43
2022/08/15 09:41:00;;;;;;;3.13;2.83;;;26.70;75.90;;;;;;5044763;28;20040;-44
2022/08/15 09:43:32;;;;;;;4.30;2.42;;;26.70;75.70;;;;;;5023934;28;20053;-44
2022/08/15 09:46:10;;;;;;;4.72;2.67;;;26.70;75.50;;;;;;5044092;28;20033;-43
2022/08/15 09:49:08;;;;;;;4.18;2.80;;;26.70;75.40;;;;;;5043800;28;20472;-43
2022/08/15 09:51:49;;;;;;;3.63;2.40;;;26.70;75.30;;;;;;5042158;28;20377;-44
2022/08/15 09:54:22;;;;;;;6.18;3.00;;;26.70;75.50;;;;;;5044563;28;20499;-43
2022/08/15 09:56:48;;;;;;;3.15;2.65;;;26.70;75.60;;;;;;5043109;28;20028;-43
2022/08/15 09:59:25;;;;;;;3.13;2.53;;;26.70;75.60;;;;;;5044769;28;20040;-43
2022/08/15 10:01:59;;;;;;;3.25;2.92;;;26.60;75.70;;;;;;5040775;28;20029;-43
2022/08/15 10:05:10;;;;;;;3.20;2.90;;;26.60;75.80;;;;;;5044131;28;20163;-44
2022/08/15 10:07:48;;;;;;;4.45;3.25;;;26.60;76.00;;;;;;5045072;28;20022;-44
2022/08/15 10:10:21;;;;;;;2.85;2.55;;;26.60;76.10;;;;;;5043988;28;20033;-35
2022/08/15 10:13:10;;;;;;;3.65;3.33;;;26.50;76.30;;;;;;5043503;28;20098;-33
2022/08/15 10:15:43;;;;;;;5.68;4.18;;;26.50;76.70;;;;;;5044149;28;20115;-34
2022/08/15 10:18:27;;;;;;;5.47;3.88;;;26.50;76.90;;;;;;5042714;28;20028;-35
2022/08/15 10:21:16;;;;;;;5.60;4.22;;;26.40;77.20;;;;;;5043017;28;20059;-34
2022/08/15 10:23:51;;;;;;;4.00;3.70;;;26.30;77.50;;;;;;5047052;28;20072;-34
2022/08/15 10:26:22;;;;;;;4.30;3.85;;;26.30;77.80;;;;;;5047395;28;20056;-34
2022/08/15 10:29:39;;;;;;;5.93;4.57;;;26.20;77.90;;;;;;5047547;28;20025;-34
2022/08/15 10:32:21;;;;;;;4.40;4.00;;;26.20;78.30;;;;;;5037073;28;20084;-34
2022/08/15 10:35:02;;;;;;;6.07;4.38;;;26.20;78.60;;;;;;5027101;28;20120;-34
2022/08/15 10:37:53;;;;;;;5.57;4.65;;;26.20;78.90;;;;;;5042910;28;20503;-33
2022/08/15 10:40:52;;;;;;;6.23;4.67;;;26.20;79.40;;;;;;5048068;28;20025;-33
2022/08/15 10:43:29;;;;;;;4.80;4.20;;;26.20;79.90;;;;;;5047302;28;20382;-33
2022/08/15 10:46:17;;;;;;;3.78;3.47;;;26.30;80.60;;;;;;5046582;28;20602;-33
2022/08/15 10:49:13;;;;;;;4.43;4.03;;;26.30;81.10;;;;;;5047211;28;20036;-35
2022/08/15 10:51:46;;;;;;;5.22;4.80;;;26.30;81.30;;;;;;5047070;28;20036;-35
2022/08/15 10:54:24;;;;;;;4.95;4.45;;;26.40;81.40;;;;;;5046729;28;20017;-35
2022/08/15 10:56:54;;;;;;;5.32;4.35;;;26.50;81.70;;;;;;5047079;28;20051;-34
2022/08/15 10:59:25;;;;;;;5.78;5.18;;;26.70;81.70;;;;;;5046745;28;20846;-34
2022/08/15 11:02:01;;;;;;;5.53;4.80;;;26.90;81.60;;;;;;5046781;28;20096;-34
2022/08/15 11:04:35;;;;;;;9.00;5.78;;;26.90;81.30;;;;;;5036557;28;20455;-34
2022/08/15 11:07:16;;;;;;;6.07;5.47;;;27.00;81.20;;;;;;5046158;28;20104;-34
2022/08/15 11:09:41;;;;;;;6.53;5.43;;;27.10;81.30;;;;;;5037478;28;20524;-34
2022/08/15 11:12:08;;;;;;;7.25;5.47;;;27.10;81.30;;;;;;5047026;28;20036;-34
2022/08/15 11:14:43;;;;;;;7.15;5.32;;;27.10;81.30;;;;;;5046083;28;20025;-33
2022/08/15 11:17:22;;;;;;;8.40;4.78;;;27.20;81.30;;;;;;5046938;28;20032;-34
2022/08/15 11:19:50;;;;;;;8.65;5.95;;;27.30;81.30;;;;;;5046892;28;20029;-34
2022/08/15 11:22:29;;;;;;;7.28;5.75;;;27.30;80.90;;;;;;5045911;28;20017;-35
2022/08/15 11:25:01;;;;;;;5.50;4.35;;;27.40;80.80;;;;;;5046433;28;20518;-34
2022/08/15 11:27:29;;;;;;;5.00;4.50;;;27.40;80.70;;;;;;5045468;28;20071;-34
2022/08/15 11:29:57;;;;;;;5.28;4.78;;;27.40;80.70;;;;;;5047443;28;20025;-34
2022/08/15 11:32:36;;;;;;;6.22;4.80;;;27.40;80.80;;;;;;5045740;28;20040;-35
2022/08/15 11:35:07;;;;;;;4.35;4.00;;;27.50;80.90;;;;;;5043263;28;20017;-35
2022/08/15 11:37:40;;;;;;;5.50;4.30;;;27.50;80.80;;;;;;5046651;28;20485;-35
2022/08/15 11:40:06;;;;;;;4.88;4.28;;;27.50;80.80;;;;;;5043245;28;20032;-33
2022/08/15 11:42:37;;;;;;;8.60;5.80;;;27.50;80.80;;;;;;5045998;28;20529;-35
2022/08/15 11:45:14;;;;;;;5.88;4.70;;;27.50;80.80;;;;;;5046839;28;20121;-33
2022/08/15 11:47:46;;;;;;;7.78;6.10;;;27.40;80.80;;;;;;5046786;28;20175;-36
2022/08/15 11:50:31;;;;;;;5.93;5.13;;;27.30;80.90;;;;;;5045444;28;20450;-34
2022/08/15 11:53:03;;;;;;;6.78;4.93;;;27.20;81.70;;;;;;5046421;28;20013;-35
2022/08/15 11:55:32;;;;;;;5.82;5.22;;;27.10;81.30;;;;;;5044870;28;20472;-34
2022/08/15 11:58:05;;;;;;;6.05;5.38;;;27.10;81.40;;;;;;5047080;28;20033;-35
2022/08/15 12:00:44;;;;;;;4.90;4.45;;;27.00;81.40;;;;;;5046388;28;20059;-34
2022/08/15 12:03:36;;;;;;;5.22;4.70;;;27.00;81.50;;;;;;5045686;28;20045;-34
2022/08/15 12:06:13;;;;;;;6.50;5.00;;;27.10;81.60;;;;;;5045031;28;20040;-33
2022/08/15 12:08:42;;;;;;;8.77;5.63;;;27.10;81.50;;;;;;5045876;28;20044;-33
2022/08/15 12:11:17;;;;;;;8.10;5.90;;;27.20;81.60;;;;;;5041759;28;20056;-33
2022/08/15 12:13:56;;;;;;;5.55;4.93;;;27.20;81.70;;;;;;5046375;28;20437;-33
2022/08/15 12:16:33;;;;;;;5.97;5.38;;;27.20;81.70;;;;;;5042729;28;20037;-36
2022/08/15 12:19:34;;;;;;;5.75;5.07;;;27.20;81.80;;;;;;5046260;28;20037;-34
2022/08/15 12:22:05;;;;;;;8.05;5.00;;;27.20;82.00;;;;;;5036193;28;20029;-34
2022/08/15 12:24:34;;;;;;;5.75;4.72;;;27.30;82.00;;;;;;5045512;28;20025;-34
2022/08/15 12:27:01;;;;;;;5.75;4.63;;;27.30;81.90;;;;;;5045820;28;20033;-33
2022/08/15 12:29:31;;;;;;;6.30;4.78;;;27.30;82.00;;;;;;5045542;28;20519;-34
2022/08/15 12:31:58;;;;;;;6.20;4.70;;;27.30;82.40;;;;;;5045052;28;20033;-34
2022/08/15 12:34:27;;;;;;;7.43;5.30;;;27.30;82.70;;;;;;5045476;28;20439;-33
2022/08/15 12:36:53;;;;;;;6.82;4.97;;;27.20;83.00;;;;;;5045527;28;20024;-34
2022/08/15 12:39:20;;;;;;;6.15;4.32;;;27.10;83.30;;;;;;5045314;28;20029;-35
2022/08/15 12:41:48;;;;;;;5.90;4.10;;;27.10;83.50;;;;;;5044785;28;20037;-34
2022/08/15 12:44:21;;;;;;;5.53;4.95;;;27.10;83.40;;;;;;5044743;28;20033;-34
2022/08/15 12:46:47;;;;;;;4.60;4.20;;;27.20;83.30;;;;;;5044973;28;20036;-35
2022/08/15 12:49:12;;;;;;;6.10;4.13;;;27.20;83.10;;;;;;5046067;28;20021;-35
2022/08/15 12:51:38;;;;;;;5.45;4.93;;;27.30;82.80;;;;;;5044304;28;20045;-34
2022/08/15 12:54:03;;;;;;;5.70;5.13;;;27.30;82.20;;;;;;5046068;28;20102;-33
2022/08/15 12:56:29;;;;;;;5.22;4.38;;;27.30;82.10;;;;;;5045072;28;20021;-34
2022/08/15 12:58:55;;;;;;;5.05;4.20;;;27.30;82.00;;;;;;5044604;28;20021;-33
2022/08/15 13:01:20;;;;;;;7.53;4.18;;;27.30;81.90;;;;;;5045347;28;20112;-34
2022/08/15 13:03:47;;;;;;;5.53;3.90;;;27.30;81.70;;;;;;5044322;28;20096;-35
2022/08/15 13:06:31;;;;;;;6.05;4.47;;;27.30;81.70;;;;;;5044702;28;20049;-34
2022/08/15 13:08:56;;;;;;;4.03;3.63;;;27.30;81.60;;;;;;5044748;28;20527;-34
2022/08/15 13:11:22;;;;;;;5.22;4.70;;;27.40;81.40;;;;;;5044658;28;20041;-34
2022/08/15 13:13:49;;;;;;;4.78;4.03;;;27.40;81.30;;;;;;5043297;28;20017;-34
2022/08/15 13:16:16;;;;;;;4.22;3.60;;;27.50;81.20;;;;;;5044681;28;20133;-34
2022/08/15 13:18:42;;;;;;;5.43;4.57;;;27.50;81.00;;;;;;5044833;28;20365;-34
2022/08/15 13:23:52;;;;;;;4.70;4.28;;;27.60;81.00;;;;;;5044938;28;20159;-34